createdAt,value
2023-05-05T00:02:24.577Z,5.03
2023-05-05T00:06:28.492Z,4.55
2023-05-05T00:10:32.891Z,4.32
2023-05-05T00:14:35.658Z,4.43
2023-05-05T00:18:38.380Z,4.43
2023-05-05T00:22:41.094Z,4.00
2023-05-05T00:26:45.194Z,4.43
2023-05-05T00:30:47.910Z,4.63
2023-05-05T00:34:50.988Z,4.30
2023-05-05T00:38:54.066Z,4.25
2023-05-05T00:42:59.519Z,4.72
2023-05-05T00:47:02.263Z,6.68
2023-05-05T00:51:08.781Z,5.18
2023-05-05T00:55:11.418Z,4.80
2023-05-05T00:59:15.650Z,4.88
2023-05-05T01:03:18.563Z,4.95
2023-05-05T01:07:28.693Z,4.80
2023-05-05T01:11:33.691Z,5.82
2023-05-05T01:15:43.443Z,5.80
2023-05-05T01:19:56.949Z,7.22
2023-05-05T01:24:28.750Z,5.78
2023-05-05T01:28:56.027Z,4.90
2023-05-05T01:33:03.528Z,5.50
2023-05-05T01:37:09.723Z,9.20
2023-05-05T01:41:18.741Z,7.05
2023-05-05T01:45:23.205Z,5.60
2023-05-05T01:49:27.721Z,5.65
2023-05-05T01:53:30.734Z,5.82
2023-05-05T01:57:34.326Z,8.50
2023-05-05T02:01:40.853Z,5.10
2023-05-05T02:05:45.796Z,5.80
2023-05-05T02:09:49.448Z,5.68
2023-05-05T02:13:52.379Z,5.53
2023-05-05T02:17:55.467Z,5.68
2023-05-05T02:21:59.565Z,5.10
2023-05-05T02:26:06.161Z,4.57
2023-05-05T02:30:11.222Z,4.60
2023-05-05T02:34:15.014Z,4.07
2023-05-05T02:42:23.484Z,5.72
2023-05-05T02:46:26.839Z,4.45
2023-05-05T02:50:29.542Z,4.70
2023-05-05T02:54:34.300Z,4.65
2023-05-05T02:58:43.882Z,4.68
2023-05-05T03:02:53.064Z,5.43
2023-05-05T03:06:59.722Z,5.13
2023-05-05T03:11:07.234Z,5.00
2023-05-05T03:15:11.108Z,4.75
2023-05-05T03:19:15.642Z,4.68
2023-05-05T03:23:20.996Z,4.70
2023-05-05T03:27:25.186Z,4.95
2023-05-05T03:31:28.496Z,4.55
2023-05-05T03:35:31.311Z,5.50
2023-05-05T03:39:34.008Z,5.85
2023-05-05T03:43:39.373Z,10.38
2023-05-05T03:47:42.097Z,5.97
2023-05-05T03:51:44.897Z,5.60
2023-05-05T03:55:47.817Z,5.97
2023-05-05T03:59:52.292Z,7.22
2023-05-05T04:03:55.169Z,7.78
2023-05-05T04:07:58.765Z,8.35
2023-05-05T04:12:01.550Z,8.10
2023-05-05T04:16:06.128Z,11.30
2023-05-05T04:20:09.900Z,7.65
2023-05-05T04:24:12.878Z,7.07
2023-05-05T04:28:15.847Z,7.22
2023-05-05T04:32:20.231Z,8.52
2023-05-05T04:36:22.963Z,9.60
2023-05-05T04:40:26.218Z,8.07
2023-05-05T04:44:28.920Z,10.00
2023-05-05T04:48:34.283Z,7.93
2023-05-05T04:52:37.664Z,9.20
2023-05-05T04:56:40.860Z,8.13
2023-05-05T05:00:43.586Z,10.45
2023-05-05T05:04:47.899Z,7.22
2023-05-05T05:08:50.589Z,7.65
2023-05-05T05:12:53.357Z,8.18
2023-05-05T05:16:56.204Z,7.03
2023-05-05T05:21:00.266Z,6.85
2023-05-05T05:25:02.969Z,6.78
2023-05-05T05:29:05.953Z,6.45
2023-05-05T05:33:08.834Z,6.45
2023-05-05T05:37:12.965Z,8.20
2023-05-05T05:41:15.740Z,7.15
2023-05-05T05:45:18.784Z,6.75
2023-05-05T05:49:21.561Z,8.13
2023-05-05T05:53:25.665Z,8.68
2023-05-05T05:57:28.613Z,9.93
2023-05-05T06:01:31.252Z,9.40
2023-05-05T06:05:33.887Z,9.88
2023-05-05T06:09:38.328Z,9.23
2023-05-05T06:13:41.955Z,8.05
2023-05-05T06:17:44.926Z,8.60
2023-05-05T06:21:47.678Z,10.02
2023-05-05T06:25:53.086Z,8.70
2023-05-05T06:29:55.871Z,6.72
2023-05-05T06:33:58.933Z,6.25
2023-05-05T06:38:01.730Z,6.78
2023-05-05T06:42:05.914Z,6.47
2023-05-05T06:46:08.604Z,6.68
2023-05-05T06:50:12.246Z,5.40
2023-05-05T06:54:15.192Z,5.25
2023-05-05T06:58:19.377Z,4.38
2023-05-05T07:02:23.504Z,4.57
2023-05-05T07:06:27.662Z,3.72
2023-05-05T07:10:31.549Z,4.05
2023-05-05T07:14:35.838Z,3.45
2023-05-05T07:18:38.554Z,3.13
2023-05-05T07:22:41.663Z,3.13
2023-05-05T07:26:44.661Z,2.80
2023-05-05T07:30:49.350Z,2.60
2023-05-05T07:34:51.962Z,2.20
2023-05-05T07:38:55.157Z,2.05
2023-05-05T07:42:57.952Z,2.33
2023-05-05T07:47:02.963Z,3.10
2023-05-05T07:51:05.742Z,2.60
2023-05-05T07:55:08.829Z,2.30
2023-05-05T07:59:11.979Z,2.22
2023-05-05T08:03:16.210Z,2.40
2023-05-05T08:07:19.042Z,2.80
2023-05-05T08:11:21.806Z,2.42
2023-05-05T08:15:24.498Z,3.10
2023-05-05T08:19:29.682Z,2.72
2023-05-05T08:23:32.468Z,2.50
2023-05-05T08:27:35.706Z,2.42
2023-05-05T08:31:38.493Z,2.45
2023-05-05T08:35:42.951Z,2.20
2023-05-05T08:39:45.691Z,2.08
2023-05-05T08:47:52.304Z,1.90
2023-05-05T08:51:58.056Z,1.85
2023-05-05T08:56:02.017Z,1.83
2023-05-05T09:00:05.361Z,1.92
2023-05-05T09:04:09.503Z,1.60
2023-05-05T09:08:13.706Z,1.70
2023-05-05T09:12:18.762Z,2.25
2023-05-05T09:16:22.570Z,0.98
2023-05-05T09:20:25.826Z,1.10
2023-05-05T09:24:30.010Z,1.20
2023-05-05T09:28:32.764Z,1.38
2023-05-05T09:32:49.023Z,1.23
2023-05-05T09:36:51.815Z,1.10
2023-05-05T09:40:55.964Z,1.00
2023-05-05T09:44:59.980Z,0.90
2023-05-05T09:49:23.458Z,1.08
2023-05-05T09:53:27.080Z,0.73
2023-05-05T09:57:33.464Z,0.80
2023-05-05T10:01:36.291Z,1.00
2023-05-05T10:05:50.529Z,0.80
2023-05-05T10:09:53.595Z,0.73
2023-05-05T10:13:58.441Z,0.77
2023-05-05T10:18:07.659Z,0.75
2023-05-05T10:22:11.384Z,0.95
2023-05-05T10:26:15.955Z,0.93
2023-05-05T10:30:24.719Z,0.82
2023-05-05T10:34:32.253Z,0.90
2023-05-05T10:38:35.057Z,0.82
2023-05-05T10:42:38.691Z,0.68
2023-05-05T10:46:44.221Z,0.80
2023-05-05T10:50:51.818Z,1.10
2023-05-05T10:55:02.353Z,0.68
2023-05-05T10:59:05.038Z,0.90
2023-05-05T11:03:34.012Z,0.80
2023-05-05T11:07:37.221Z,0.70
2023-05-05T11:12:02.971Z,0.70
2023-05-05T11:16:06.248Z,0.70
2023-05-05T11:20:11.553Z,0.65
2023-05-05T11:24:29.190Z,0.80
2023-05-05T11:28:32.471Z,0.73
2023-05-05T11:32:35.959Z,0.50
2023-05-05T11:36:41.669Z,0.77
2023-05-05T11:40:46.457Z,0.70
2023-05-05T11:44:49.267Z,0.55
2023-05-05T11:48:52.974Z,0.70
2023-05-05T11:52:57.076Z,1.10
2023-05-05T11:57:02.074Z,4.63
2023-05-05T12:01:07.019Z,5.38
2023-05-05T12:05:10.224Z,1.20
2023-05-05T12:09:17.238Z,1.80
2023-05-05T12:13:20.561Z,1.10
2023-05-05T12:17:24.346Z,1.45
2023-05-05T12:21:27.048Z,1.98
2023-05-05T12:25:38.162Z,1.20
2023-05-05T12:29:43.738Z,1.90
2023-05-05T12:33:46.737Z,1.00
2023-05-05T12:37:49.396Z,0.90
2023-05-05T12:46:08.033Z,0.93
2023-05-05T12:50:11.409Z,0.88
2023-05-05T12:54:14.123Z,1.00
2023-05-05T13:02:22.109Z,0.80
2023-05-05T13:06:27.219Z,0.85
2023-05-05T13:10:31.282Z,0.80
2023-05-05T13:14:36.395Z,0.90
2023-05-05T13:18:45.531Z,0.93
2023-05-05T13:26:51.351Z,0.80
2023-05-05T13:30:56.039Z,1.00
2023-05-05T13:34:59.149Z,0.70
2023-05-05T13:39:02.069Z,1.02
2023-05-05T13:43:04.896Z,1.50
2023-05-05T13:47:09.698Z,1.60
2023-05-05T13:51:12.644Z,1.92
2023-05-05T13:55:15.554Z,1.90
2023-05-05T13:59:18.273Z,1.42
2023-05-05T14:03:23.822Z,1.65
2023-05-05T14:07:26.591Z,1.88
2023-05-05T14:11:29.425Z,2.00
2023-05-05T14:15:32.118Z,1.80
2023-05-05T14:19:36.427Z,1.55
2023-05-05T14:23:39.211Z,1.42
2023-05-05T14:27:41.956Z,1.85
2023-05-05T14:31:44.606Z,1.70
2023-05-05T14:35:49.034Z,1.70
2023-05-05T14:39:52.051Z,1.80
2023-05-05T14:43:54.996Z,2.30
2023-05-05T14:47:58.691Z,2.30
2023-05-05T14:52:03.290Z,2.08
2023-05-05T14:56:06.821Z,1.70
2023-05-05T15:00:10.995Z,1.85
2023-05-05T15:04:13.854Z,2.20
2023-05-05T15:08:19.280Z,1.50
2023-05-05T15:12:22.079Z,2.10
2023-05-05T15:16:24.850Z,2.13
2023-05-05T15:20:28.591Z,1.88
2023-05-05T15:24:32.792Z,2.03
2023-05-05T15:28:35.754Z,1.90
2023-05-05T15:32:38.621Z,2.40
2023-05-05T15:36:41.361Z,1.90
2023-05-05T15:40:48.325Z,2.53
2023-05-05T15:44:53.162Z,1.73
2023-05-05T15:52:59.086Z,1.42
2023-05-05T15:57:03.263Z,1.60
2023-05-05T16:01:06.224Z,1.70
2023-05-05T16:05:10.007Z,1.50
2023-05-05T16:09:13.040Z,1.70
2023-05-05T16:13:17.360Z,1.20
2023-05-05T16:17:21.707Z,1.42
2023-05-05T16:21:25.717Z,1.45
2023-05-05T16:25:29.723Z,1.45
2023-05-05T16:29:33.824Z,1.33
2023-05-05T16:33:40.723Z,1.27
2023-05-05T16:37:43.388Z,1.25
2023-05-05T16:41:46.143Z,1.10
2023-05-05T16:45:50.311Z,1.40
2023-05-05T16:49:53.371Z,1.05
2023-05-05T16:53:56.492Z,2.05
2023-05-05T17:02:03.336Z,1.27
2023-05-05T17:06:06.839Z,1.25
2023-05-05T17:10:11.210Z,1.30
2023-05-05T17:14:14.327Z,1.35
2023-05-05T17:18:20.277Z,1.42
2023-05-05T17:22:22.986Z,1.85
2023-05-05T17:26:25.783Z,1.70
2023-05-05T17:30:28.718Z,1.50
2023-05-05T17:34:32.904Z,1.42
2023-05-05T17:38:35.598Z,1.38
2023-05-05T17:42:38.986Z,1.30
2023-05-05T17:46:42.954Z,1.15
2023-05-05T17:50:48.135Z,1.38
2023-05-05T17:54:51.634Z,1.20
2023-05-05T17:58:54.918Z,1.40
2023-05-05T18:07:01.922Z,1.10
2023-05-05T18:11:04.606Z,1.23
2023-05-05T18:15:09.144Z,1.55
2023-05-05T18:19:12.053Z,1.70
2023-05-05T18:23:16.388Z,1.30
2023-05-05T18:27:19.300Z,1.55
2023-05-05T18:31:25.169Z,1.85
2023-05-05T18:35:28.520Z,1.00
2023-05-05T18:43:35.104Z,1.20
2023-05-05T18:47:38.948Z,1.08
2023-05-05T18:51:41.738Z,1.30
2023-05-05T18:55:47.026Z,1.30
2023-05-05T18:59:50.522Z,0.98
2023-05-05T19:03:53.248Z,1.10
2023-05-05T19:07:55.909Z,1.20
2023-05-05T19:12:00.407Z,1.35
2023-05-05T19:16:03.495Z,1.50
2023-05-05T19:20:07.648Z,1.27
2023-05-05T19:24:10.993Z,2.67
2023-05-05T19:28:15.167Z,1.50
2023-05-05T19:32:18.116Z,15.95
2023-05-05T19:36:20.996Z,1.60
2023-05-05T19:40:24.053Z,1.98
2023-05-05T19:44:28.092Z,2.30
2023-05-05T19:48:31.472Z,1.65
2023-05-05T19:52:36.533Z,1.40
2023-05-05T19:56:39.568Z,1.33
2023-05-05T20:00:43.840Z,1.20
2023-05-05T20:04:46.542Z,1.10
2023-05-05T20:08:49.265Z,1.73
2023-05-05T20:12:52.723Z,1.20
2023-05-05T20:21:02.448Z,1.65
2023-05-05T20:25:05.642Z,1.77
2023-05-05T20:29:08.689Z,1.30
2023-05-05T20:33:12.913Z,1.40
2023-05-05T20:37:15.802Z,1.55
2023-05-05T20:41:18.501Z,1.70
2023-05-05T20:45:21.479Z,1.30
2023-05-05T20:49:25.719Z,1.30
2023-05-05T20:53:28.389Z,1.33
2023-05-05T20:57:31.095Z,1.40
2023-05-05T21:01:34.570Z,2.00
2023-05-05T21:05:39.934Z,1.48
2023-05-05T21:09:42.813Z,1.42
2023-05-05T21:13:45.473Z,1.30
2023-05-05T21:17:48.309Z,1.40
2023-05-05T21:21:53.737Z,1.30
2023-05-05T21:25:56.576Z,1.45
2023-05-05T21:29:59.279Z,1.45
2023-05-05T21:34:02.628Z,1.20
2023-05-05T21:38:06.965Z,1.30
2023-05-05T21:42:09.646Z,1.30
2023-05-05T21:46:12.941Z,1.20
2023-05-05T21:50:15.856Z,1.80
2023-05-05T21:54:20.342Z,2.88
2023-05-05T21:58:24.672Z,1.90
2023-05-05T22:02:27.761Z,1.88
2023-05-05T22:06:30.685Z,2.08
2023-05-05T22:10:35.099Z,2.03
2023-05-05T22:14:38.209Z,2.60
2023-05-05T22:18:41.291Z,1.90
2023-05-05T22:22:44.377Z,1.98
2023-05-05T22:26:48.684Z,2.38
2023-05-05T22:30:51.619Z,3.25
2023-05-05T22:34:54.490Z,3.17
2023-05-05T22:38:57.221Z,2.67
2023-05-05T22:43:01.755Z,4.05
2023-05-05T22:47:04.780Z,3.63
2023-05-05T22:51:08.008Z,5.28
2023-05-05T22:55:12.744Z,4.72
2023-05-05T22:59:17.125Z,3.10
2023-05-05T23:03:20.149Z,2.75
2023-05-05T23:07:22.882Z,4.70
2023-05-05T23:11:26.963Z,3.40
2023-05-05T23:15:31.202Z,2.38
2023-05-05T23:19:34.806Z,3.35
2023-05-05T23:23:37.497Z,3.05
2023-05-05T23:27:41.295Z,3.15
2023-05-05T23:31:46.262Z,3.97
2023-05-05T23:35:49.014Z,3.30
2023-05-05T23:39:51.930Z,4.93
2023-05-05T23:43:54.904Z,6.95
2023-05-05T23:47:59.234Z,13.60
2023-05-05T23:52:01.968Z,5.00
2023-05-05T23:56:04.852Z,5.95
